Time;durP1;ratioP1;P1;durP2;ratioP2;P2;SDS_P1;SDS_P2;PMS_P1;PMS_P2;Temp;Humidity;BMP_temperature;BMP_pressure;BME280_temperature;BME280_humidity;BME280_pressure;Samples;Min_cycle;Max_cycle;Signal;HPM_P1;HPM_P2
2022/04/18 00:01:44;;;;;;;3.85;2.65;;;;;;;2.76;74.57;101871.78;10486643;28;20143;-77
2022/04/18 00:06:45;;;;;;;5.05;2.72;;;;;;;2.63;74.82;101882.59;10420160;28;20084;-78
2022/04/18 00:11:45;;;;;;;6.10;2.53;;;;;;;2.57;77.20;101874.25;10454350;28;20045;-78
2022/04/18 00:16:46;;;;;;;4.68;2.75;;;;;;;2.46;76.41;101873.25;10419765;28;20117;-78
2022/04/18 00:21:46;;;;;;;4.03;2.35;;;;;;;2.49;76.93;101872.59;10450534;28;20480;-78
2022/04/18 00:26:47;;;;;;;4.85;2.85;;;;;;;2.56;77.28;101868.94;10419943;28;20060;-78
2022/04/18 00:31:48;;;;;;;5.82;2.47;;;;;;;2.60;77.77;101866.78;10420249;28;20048;-78
2022/04/18 00:36:48;;;;;;;5.25;2.92;;;;;;;2.50;77.50;101858.91;10435153;28;20071;-78
2022/04/18 00:41:49;;;;;;;4.47;2.55;;;;;;;2.49;76.88;101867.44;10435476;28;20441;-78
2022/04/18 00:46:49;;;;;;;3.72;2.50;;;;;;;2.48;77.74;101866.53;10435702;28;20060;-78
2022/04/18 00:51:50;;;;;;;4.53;2.97;;;;;;;2.42;78.93;101862.44;10430251;28;20488;-78
2022/04/18 00:56:53;;;;;;;5.35;3.38;;;;;;;2.34;78.99;101862.63;10435506;28;20039;-78
2022/04/18 01:01:54;;;;;;;4.97;2.85;;;;;;;2.38;77.90;101857.75;10453508;28;20085;-78
2022/04/18 01:06:55;;;;;;;6.10;2.92;;;;;;;2.38;77.36;101853.50;10453146;28;20064;-78
2022/04/18 01:11:56;;;;;;;5.50;3.67;;;;;;;2.34;77.42;101844.53;10452157;28;20507;-78
2022/04/18 01:16:56;;;;;;;7.30;3.38;;;;;;;2.36;77.93;101847.28;10401906;28;20025;-77
2022/04/18 01:21:58;;;;;;;7.15;3.20;;;;;;;2.31;77.53;101843.34;10430872;28;20049;-78
2022/04/18 01:32:17;;;;;;;6.25;2.28;;;;;;;2.26;78.29;101834.22;10421085;28;20037;-78
2022/04/18 01:37:18;;;;;;;5.15;3.03;;;;;;;2.23;78.36;101831.34;10451520;28;20095;-78
2022/04/18 01:42:18;;;;;;;4.00;2.85;;;;;;;2.19;77.88;101820.72;10417651;28;20059;-78
2022/04/18 01:47:19;;;;;;;3.83;2.67;;;;;;;2.24;78.92;101821.16;10451801;28;20037;-78
2022/04/18 01:52:19;;;;;;;10.77;3.00;;;;;;;2.24;80.01;101828.91;10452277;28;20045;-78
2022/04/18 01:57:20;;;;;;;5.20;2.97;;;;;;;2.09;80.06;101824.84;10452200;28;20069;-78
2022/04/18 02:02:20;;;;;;;3.95;2.40;;;;;;;2.04;80.09;101825.28;10450385;28;20044;-78
2022/04/18 02:07:21;;;;;;;5.00;2.72;;;;;;;1.96;80.06;101812.41;10452449;28;20037;-78
2022/04/18 02:12:22;;;;;;;6.07;2.97;;;;;;;1.97;79.97;101819.41;10448126;28;20083;-78
2022/04/18 02:17:22;;;;;;;5.80;2.47;;;;;;;2.00;80.95;101806.78;10435403;28;20079;-78
2022/04/18 02:22:23;;;;;;;5.70;2.50;;;;;;;1.98;81.18;101808.31;10433021;28;20040;-78
2022/04/18 02:27:24;;;;;;;5.18;2.58;;;;;;;1.83;81.72;101803.47;10423404;28;20029;-78
2022/04/18 02:37:43;;;;;;;8.45;4.00;;;;;;;1.82;82.11;101801.66;10442652;28;20029;-78
2022/04/18 02:42:44;;;;;;;6.45;3.60;;;;;;;1.80;81.99;101800.59;10454578;28;20060;-78
2022/04/18 02:47:44;;;;;;;5.88;3.33;;;;;;;1.72;81.02;101799.81;10440649;28;20465;-78
2022/04/18 02:52:45;;;;;;;8.57;3.20;;;;;;;1.67;81.29;101797.56;10439712;28;20033;-78
2022/04/18 02:57:46;;;;;;;4.25;2.83;;;;;;;1.70;81.25;101793.59;10422579;28;20069;-78
2022/04/18 03:02:46;;;;;;;7.00;3.88;;;;;;;1.66;81.15;101791.47;10420558;28;20092;-78
2022/04/18 03:07:47;;;;;;;6.28;3.92;;;;;;;1.65;82.44;101788.75;10436888;28;20045;-78
2022/04/18 03:12:47;;;;;;;5.82;3.28;;;;;;;1.71;81.37;101791.94;10415185;28;20110;-78
2022/04/18 03:17:49;;;;;;;6.38;3.13;;;;;;;1.57;80.25;101783.75;10456323;28;20526;-78
2022/04/18 03:22:49;;;;;;;6.03;3.78;;;;;;;1.49;80.56;101788.91;10438356;28;20036;-78
2022/04/18 03:27:50;;;;;;;5.13;3.47;;;;;;;1.50;79.60;101793.31;10422434;28;20049;-80
2022/04/18 03:32:50;;;;;;;7.90;3.13;;;;;;;1.53;80.97;101791.03;10437911;28;20484;-78
2022/04/18 03:43:10;;;;;;;6.97;3.80;;;;;;;1.33;82.73;101786.50;10439553;28;20393;-78
2022/04/18 03:48:11;;;;;;;5.05;3.13;;;;;;;1.15;83.13;101786.47;10436947;28;20060;-78
2022/04/18 03:53:11;;;;;;;5.43;3.38;;;;;;;1.09;83.17;101786.75;10454435;28;20110;-78
2022/04/18 03:58:12;;;;;;;56.83;30.15;;;;;;;1.07;82.76;101789.94;10456023;28;20118;-78
2022/04/18 04:03:12;;;;;;;7.55;4.60;;;;;;;1.12;84.17;101784.47;10452002;28;20060;-76
2022/04/18 04:08:13;;;;;;;5.88;3.85;;;;;;;0.95;84.79;101776.72;10437875;28;20043;-76
2022/04/18 04:13:13;;;;;;;6.60;2.95;;;;;;;0.82;85.04;101779.72;10419745;28;20119;-76
2022/04/18 04:18:16;;;;;;;8.45;3.78;;;;;;;0.87;84.93;101779.44;10446311;28;20122;-77
2022/04/18 04:23:17;;;;;;;15.98;5.00;;;;;;;0.77;85.01;101775.78;10431789;28;20070;-78
2022/04/18 04:28:17;;;;;;;13.85;5.53;;;;;;;0.76;84.20;101784.25;10451926;28;20051;-77
2022/04/18 04:33:18;;;;;;;10.98;4.78;;;;;;;0.78;84.79;101786.22;10414945;28;20450;-77
2022/04/18 04:38:18;;;;;;;7.40;3.60;;;;;;;0.82;85.06;101784.88;10441618;28;20084;-77
2022/04/18 04:43:28;;;;;;;8.75;4.53;;;;;;;0.85;84.98;101777.47;10451046;28;20024;-77
2022/04/18 04:48:28;;;;;;;11.13;4.47;;;;;;;0.90;84.66;101781.41;10417117;28;20567;-77
2022/04/18 04:53:29;;;;;;;5.93;3.70;;;;;;;1.01;84.88;101783.41;10436593;28;20037;-77
2022/04/18 04:58:29;;;;;;;8.82;4.25;;;;;;;1.02;84.58;101779.16;10450887;28;20061;-77
2022/04/18 05:03:30;;;;;;;6.43;3.75;;;;;;;1.00;84.46;101786.75;10432621;28;20210;-77
2022/04/18 05:08:31;;;;;;;6.10;3.63;;;;;;;0.94;84.84;101782.63;10418089;28;20106;-78
2022/04/18 05:13:31;;;;;;;9.20;3.95;;;;;;;0.99;85.49;101784.00;10451477;28;20035;-78
2022/04/18 05:18:32;;;;;;;4.72;3.10;;;;;;;1.50;86.28;101780.41;10416125;28;20120;-78
2022/04/18 05:23:33;;;;;;;6.05;3.03;;;;;;;1.83;84.43;101787.06;10433132;28;20055;-76
2022/04/18 05:28:33;;;;;;;4.50;3.00;;;;;;;1.94;82.95;101782.94;10454620;28;20056;-77
2022/04/18 05:33:34;;;;;;;5.53;4.07;;;;;;;2.16;81.72;101786.84;10410154;28;20168;-77
2022/04/18 05:38:34;;;;;;;7.13;3.08;;;;;;;2.52;79.45;101784.13;10434564;28;20056;-77
2022/04/18 05:43:35;;;;;;;3.92;2.63;;;;;;;2.82;76.98;101778.34;10409376;28;20329;-77
2022/04/18 05:48:35;;;;;;;5.05;3.15;;;;;;;3.87;75.22;101776.63;10412617;28;20064;-77
2022/04/18 05:53:36;;;;;;;4.35;2.63;;;;;;;5.41;67.94;101779.31;10416130;28;20132;-77
2022/04/18 05:58:36;;;;;;;6.68;3.45;;;;;;;6.52;63.52;101781.28;10435866;28;20477;-76
2022/04/18 06:03:37;;;;;;;5.30;3.38;;;;;;;8.12;58.82;101773.25;10431948;28;20029;-76
2022/04/18 06:08:38;;;;;;;6.05;2.75;;;;;;;10.86;51.34;101772.19;10454684;28;20510;-76
2022/04/18 06:13:39;;;;;;;7.68;3.15;;;;;;;13.32;42.43;101770.94;10457713;28;20025;-76
2022/04/18 06:18:39;;;;;;;4.55;3.10;;;;;;;14.23;43.93;101773.59;10424443;28;20060;-77
2022/04/18 06:23:40;;;;;;;4.65;2.70;;;;;;;15.03;41.30;101772.81;10401285;28;20080;-78
2022/04/18 06:28:40;;;;;;;4.65;2.58;;;;;;;15.62;36.53;101775.28;10414048;28;20122;-77
2022/04/18 06:33:41;;;;;;;4.57;3.05;;;;;;;16.11;38.34;101773.78;10453183;28;20063;-77
2022/04/18 06:38:41;;;;;;;4.87;2.10;;;;;;;17.15;35.21;101775.00;10440316;28;20106;-77
2022/04/18 06:43:41;;;;;;;3.20;2.40;;;;;;;18.24;30.52;101770.59;10422658;28;20067;-77
2022/04/18 06:48:42;;;;;;;7.33;2.97;;;;;;;18.22;30.23;101781.16;10419767;28;20032;-78
2022/04/18 06:53:42;;;;;;;4.83;2.70;;;;;;;18.51;33.50;101781.13;10418924;28;20064;-78
2022/04/18 06:58:43;;;;;;;6.50;4.40;;;;;;;19.99;30.50;101767.34;10434702;28;20120;-77
2022/04/18 07:03:43;;;;;;;5.27;2.60;;;;;;;20.20;27.91;101774.00;10435233;28;20091;-81
2022/04/18 07:08:47;;;;;;;4.70;3.43;;;;;;;20.11;30.97;101764.06;10421960;28;20033;-78
2022/04/18 07:13:49;;;;;;;5.53;3.08;;;;;;;20.87;26.89;101759.44;10438747;28;20480;-77
2022/04/18 07:18:49;;;;;;;4.60;3.20;;;;;;;20.05;28.45;101763.91;10456827;28;20041;-77
2022/04/18 07:23:50;;;;;;;3.80;2.47;;;;;;;19.94;29.25;101758.38;10452826;28;20048;-76
2022/04/18 07:28:50;;;;;;;6.93;4.40;;;;;;;20.10;27.62;101770.25;10422797;28;20033;-76
2022/04/18 07:33:51;;;;;;;7.10;3.53;;;;;;;20.38;26.55;101770.84;10401584;28;20064;-76
2022/04/18 07:38:52;;;;;;;5.00;3.00;;;;;;;20.92;26.17;101755.09;10435229;28;20116;-77
2022/04/18 07:43:53;;;;;;;5.03;2.83;;;;;;;21.50;26.14;101759.66;10405400;28;20025;-78
2022/04/18 07:48:53;;;;;;;5.90;3.63;;;;;;;21.60;25.15;101760.72;10392714;28;20544;-75
2022/04/18 07:53:54;;;;;;;11.40;4.47;;;;;;;21.74;25.01;101758.31;10450785;28;20029;-77
2022/04/18 07:58:54;;;;;;;8.10;3.80;;;;;;;22.28;25.27;101743.97;10436241;28;20068;-76
2022/04/18 08:03:57;;;;;;;6.10;3.23;;;;;;;21.85;23.59;101741.63;10415764;28;20381;-78
2022/04/18 08:08:57;;;;;;;6.88;3.85;;;;;;;22.53;26.41;101728.31;10444518;28;20039;-76
2022/04/18 08:13:58;;;;;;;8.93;4.60;;;;;;;22.68;24.57;101732.03;10435712;28;20037;-76
2022/04/18 08:18:59;;;;;;;5.63;3.40;;;;;;;23.55;24.52;101731.09;10455153;28;20063;-77
2022/04/18 08:23:59;;;;;;;6.30;3.37;;;;;;;24.88;20.83;101738.00;10459309;28;20511;-77
2022/04/18 08:29:00;;;;;;;4.67;2.50;;;;;;;23.80;23.23;101738.38;10463711;28;20082;-77
2022/04/18 08:34:00;;;;;;;5.97;3.10;;;;;;;25.53;21.31;101729.13;10472159;28;20123;-77
2022/04/18 08:39:01;;;;;;;5.90;3.07;;;;;;;25.17;20.53;101727.31;10467036;28;20067;-79
2022/04/18 08:44:02;;;;;;;4.50;3.27;;;;;;;24.57;20.37;101724.53;10491450;28;20124;-79
2022/04/18 08:54:26;;;;;;;11.88;6.93;;;;;;;25.85;21.25;101718.38;10482500;28;20045;-78
2022/04/18 08:59:32;;;;;;;5.60;2.70;;;;;;;26.58;18.92;101715.41;10465070;28;20040;-78
2022/04/18 09:04:33;;;;;;;5.63;3.20;;;;;;;27.25;19.00;101714.97;10450953;28;20520;-80
2022/04/18 09:09:35;;;;;;;4.10;2.78;;;;;;;26.89;20.14;101717.03;10422140;28;20077;-80
2022/04/18 09:14:36;;;;;;;4.30;2.40;;;;;;;25.97;19.43;101708.50;10409961;28;20079;-78
2022/04/18 09:19:36;;;;;;;3.47;2.23;;;;;;;26.12;19.98;101699.50;10445731;28;20060;-77
2022/04/18 09:24:37;;;;;;;4.53;3.00;;;;;;;26.95;18.62;101699.06;10424828;28;20123;-77
2022/04/18 09:29:39;;;;;;;5.85;3.70;;;;;;;26.11;20.43;101695.94;10428622;28;20036;-78
2022/04/18 09:34:40;;;;;;;4.38;2.75;;;;;;;26.89;17.32;101693.75;10457399;28;20041;-79
2022/04/18 09:39:50;;;;;;;4.57;2.60;;;;;;;25.89;19.57;101689.75;10443018;28;20037;-78
2022/04/18 09:44:50;;;;;;;11.80;10.73;;;;;;;25.43;19.93;101688.91;10441827;28;20288;-77
2022/04/18 09:49:51;;;;;;;4.67;3.53;;;;;;;26.08;19.25;101672.69;10431154;28;20041;-79
2022/04/18 09:54:54;;;;;;;8.27;5.53;;;;;;;26.88;17.44;101681.22;10460017;28;20039;-78
2022/04/18 09:59:55;;;;;;;4.90;3.28;;;;;;;27.54;18.66;101666.31;10409283;28;20038;-76
2022/04/18 10:04:56;;;;;;;50.92;46.90;;;;;;;27.53;18.08;101659.16;10440404;28;20106;-76
2022/04/18 10:09:57;;;;;;;6.20;3.67;;;;;;;27.51;18.44;101658.28;10449619;28;20032;-76
2022/04/18 10:14:57;;;;;;;4.43;3.07;;;;;;;27.16;16.73;101669.38;10477053;28;20400;-76
2022/04/18 10:20:28;;;;;;;4.23;2.97;;;;;;;27.37;16.93;101650.38;10455861;28;20059;-76
2022/04/18 10:25:45;;;;;;;5.28;3.50;;;;;;;25.85;17.91;101648.66;10463260;28;20669;-77
2022/04/18 10:30:48;;;;;;;8.40;3.53;;;;;;;26.67;19.38;101650.91;10484455;28;20029;-77
2022/04/18 10:35:53;;;;;;;5.25;3.28;;;;;;;26.63;17.21;101642.91;10498789;28;20496;-77
2022/04/18 10:41:14;;;;;;;4.63;3.70;;;;;;;27.88;18.81;101645.34;10456085;28;20033;-75
2022/04/18 10:46:18;;;;;;;6.25;3.28;;;;;;;27.04;17.86;101635.44;10467748;28;20032;-77
2022/04/18 10:51:37;;;;;;;4.25;3.28;;;;;;;26.52;17.34;101627.78;10471874;28;20028;-76
2022/04/18 10:56:51;;;;;;;5.55;4.20;;;;;;;26.18;20.47;101630.66;10490666;28;20048;-76
2022/04/18 11:01:53;;;;;;;5.93;3.30;;;;;;;26.67;17.92;101620.50;10477601;28;20045;-76
2022/04/18 11:06:59;;;;;;;3.90;3.00;;;;;;;26.72;18.33;101615.09;10443818;28;20090;-77
2022/04/18 11:12:05;;;;;;;5.88;3.08;;;;;;;25.04;18.81;101621.09;10439285;28;20036;-77
2022/04/18 11:17:06;;;;;;;4.53;3.30;;;;;;;24.92;20.30;101606.81;10462272;28;20025;-77
2022/04/18 11:22:16;;;;;;;4.43;2.70;;;;;;;25.42;20.00;101597.84;10474840;28;20029;-78
2022/04/18 11:27:22;;;;;;;6.88;2.95;;;;;;;26.29;19.04;101598.38;10456436;28;20028;-77
2022/04/18 11:32:24;;;;;;;4.45;2.45;;;;;;;25.83;18.27;101594.16;10490704;28;20041;-77
2022/04/18 11:37:31;;;;;;;3.47;2.42;;;;;;;25.75;17.58;101595.97;10451704;28;20036;-78
2022/04/18 11:42:32;;;;;;;3.30;2.17;;;;;;;25.76;19.55;101587.91;10441389;28;20085;-76
2022/04/18 11:47:37;;;;;;;3.00;1.60;;;;;;;25.89;18.25;101586.06;10455775;28;20052;-77
2022/04/18 11:52:38;;;;;;;3.05;1.95;;;;;;;27.08;18.39;101578.09;10447456;28;20090;-77
2022/04/18 11:57:40;;;;;;;2.80;2.13;;;;;;;26.88;17.85;101573.81;10442939;28;20387;-77
2022/04/18 12:08:02;;;;;;;4.10;2.17;;;;;;;25.28;19.84;101571.06;10408006;28;20127;-77
2022/04/18 12:13:13;;;;;;;3.67;2.30;;;;;;;25.69;18.11;101570.06;10437015;28;20510;-78
2022/04/18 12:18:16;;;;;;;3.47;2.27;;;;;;;26.44;17.19;101558.94;10391007;28;20041;-80
2022/04/18 12:23:24;;;;;;;5.65;3.03;;;;;;;26.07;17.97;101558.25;10411411;28;20033;-82
2022/04/18 12:28:28;;;;;;;3.72;2.30;;;;;;;25.64;19.73;101553.13;10429625;28;20037;-81
2022/04/18 12:33:30;;;;;;;3.65;2.30;;;;;;;24.78;18.45;101550.63;10411558;28;20052;-79
2022/04/18 12:38:31;;;;;;;4.47;2.33;;;;;;;25.07;17.65;101538.09;10446178;28;20459;-81
2022/04/18 12:43:33;;;;;;;4.53;2.00;;;;;;;26.16;19.29;101530.53;10418028;28;20044;-80
2022/04/18 12:48:34;;;;;;;;;;;;;;;26.90;19.48;101526.34;10439189;28;20037;-82
2022/04/18 12:53:53;;;;;;;11.70;7.72;;;;;;;26.61;16.95;101521.25;10435871;28;19916;-79
2022/04/18 12:58:54;;;;;;;3.55;2.65;;;;;;;26.41;20.59;101513.34;10417381;28;20059;-78
2022/04/18 13:03:55;;;;;;;5.53;1.97;;;;;;;27.27;17.68;101508.94;10432671;28;20045;-78
2022/04/18 13:09:05;;;;;;;3.87;2.33;;;;;;;26.12;18.60;101509.06;10416723;28;20730;-79
2022/04/18 13:14:06;;;;;;;5.15;2.80;;;;;;;25.72;17.75;101505.72;10440318;28;21469;-78
2022/04/18 13:19:11;;;;;;;4.07;1.70;;;;;;;25.67;18.73;101503.97;10414043;28;20083;-79
2022/04/18 13:24:12;;;;;;;3.75;2.38;;;;;;;25.73;18.67;101498.59;10397729;28;20051;-78
2022/04/18 13:29:12;;;;;;;3.30;1.97;;;;;;;26.06;17.75;101478.69;10419868;28;20110;-78
2022/04/18 13:34:13;;;;;;;4.57;1.60;;;;;;;25.67;19.22;101475.38;10440061;28;20077;-78
2022/04/18 13:39:13;;;;;;;7.30;2.93;;;;;;;24.22;20.30;101479.25;10440349;28;20025;-80
2022/04/18 13:44:14;;;;;;;7.70;2.57;;;;;;;24.79;18.41;101473.88;10430448;28;20036;-79
2022/04/18 13:49:14;;;;;;;3.03;1.70;;;;;;;25.38;17.61;101465.66;10430750;28;20457;-78
2022/04/18 13:54:15;;;;;;;2.97;1.40;;;;;;;26.11;17.58;101470.63;10427938;28;20065;-77
2022/04/18 13:59:16;;;;;;;2.60;1.97;;;;;;;25.50;17.00;101459.41;10395009;28;20072;-76
2022/04/18 14:04:17;;;;;;;2.17;1.52;;;;;;;26.81;16.91;101456.59;10436933;28;20041;-76
2022/04/18 14:09:18;;;;;;;5.40;1.73;;;;;;;26.65;16.92;101451.38;10428222;28;20032;-78
2022/04/18 14:24:57;;;;;;;5.40;1.70;;;;;;;26.21;18.35;101436.59;10429935;28;20469;-78
2022/04/18 14:29:57;;;;;;;1.97;1.43;;;;;;;25.95;17.62;101426.94;10411738;28;20041;-78
2022/04/18 14:34:58;;;;;;;14.13;8.87;;;;;;;26.41;17.58;101420.34;10428266;28;20119;-79
2022/04/18 14:39:58;;;;;;;2.90;1.27;;;;;;;25.64;18.29;101424.47;10453569;28;20669;-79
2022/04/18 14:44:59;;;;;;;5.70;4.13;;;;;;;26.33;18.30;101417.72;10435266;28;20037;-81
2022/04/18 14:50:00;;;;;;;3.50;1.63;;;;;;;25.46;17.83;101410.28;10433054;28;20511;-81
2022/04/18 14:55:00;;;;;;;9.88;4.20;;;;;;;25.47;20.20;101405.84;10429769;28;20119;-81
2022/04/18 15:00:01;;;;;;;3.80;2.00;;;;;;;24.94;18.38;101403.38;10447527;28;20078;-80
2022/04/18 15:05:02;;;;;;;4.73;1.70;;;;;;;23.99;18.93;101398.13;10450706;28;20087;-81
2022/04/18 15:10:03;;;;;;;2.73;1.40;;;;;;;23.98;19.08;101395.44;10426032;28;20124;-80
2022/04/18 15:15:04;;;;;;;2.57;1.93;;;;;;;23.50;20.05;101398.03;10430661;28;20037;-83
2022/04/18 15:20:05;;;;;;;2.37;1.37;;;;;;;24.05;18.71;101381.22;10438033;28;20044;-82
2022/04/18 15:25:06;;;;;;;5.03;1.73;;;;;;;23.87;21.07;101385.63;10438238;28;20025;-81
2022/04/18 15:35:26;;;;;;;4.35;2.15;;;;;;;23.27;20.33;101381.06;10419092;28;20030;-82
2022/04/18 15:40:30;;;;;;;2.13;1.55;;;;;;;22.19;20.93;101380.44;10451418;28;20388;-83
2022/04/18 15:45:30;;;;;;;4.97;2.47;;;;;;;21.86;21.75;101374.81;10456071;28;21773;-81
2022/04/18 15:50:33;;;;;;;16.83;12.23;;;;;;;21.10;23.85;101371.34;10434931;28;20033;-82
2022/04/18 15:55:33;;;;;;;43.53;28.35;;;;;;;19.88;23.81;101378.38;10438723;28;20041;-80
2022/04/18 16:00:34;;;;;;;4.82;2.38;;;;;;;19.19;25.79;101376.19;10417204;28;20068;-81
2022/04/18 16:05:34;;;;;;;61.17;36.10;;;;;;;18.89;25.90;101378.22;10444466;28;20514;-79
2022/04/18 16:10:35;;;;;;;6.20;3.45;;;;;;;18.75;26.37;101369.06;10437200;28;20132;-80
2022/04/18 16:15:36;;;;;;;11.10;6.07;;;;;;;18.57;26.08;101370.47;10457001;28;20392;-79
2022/04/18 16:20:36;;;;;;;2.78;1.75;;;;;;;18.44;26.84;101363.09;10435988;28;20064;-81
2022/04/18 16:25:37;;;;;;;65.93;43.20;;;;;;;18.19;27.64;101365.16;10434637;28;20690;-81
2022/04/18 16:35:56;;;;;;;4.13;2.00;;;;;;;17.87;28.28;101359.91;10446814;28;20033;-80
2022/04/18 16:46:16;;;;;;;3.20;1.92;;;;;;;17.55;27.67;101350.28;10444465;28;20029;-81
2022/04/18 16:51:16;;;;;;;5.03;1.15;;;;;;;17.53;27.57;101343.16;10455205;28;20075;-81
2022/04/18 16:56:17;;;;;;;5.40;1.65;;;;;;;17.46;28.01;101336.78;10454412;28;20515;-81
2022/04/18 17:01:17;;;;;;;2.25;1.42;;;;;;;17.29;27.98;101345.16;10436808;28;20069;-80
2022/04/18 17:06:18;;;;;;;3.55;1.88;;;;;;;17.16;27.93;101348.31;10443790;28;20474;-81
2022/04/18 17:11:18;;;;;;;4.50;1.27;;;;;;;17.14;27.65;101344.75;10437708;28;20039;-81
2022/04/18 17:16:19;;;;;;;2.17;1.60;;;;;;;16.99;28.52;101339.94;10442044;28;20194;-81
2022/04/18 17:21:19;;;;;;;3.35;1.42;;;;;;;16.81;29.60;101341.16;10473945;28;20028;-81
2022/04/18 17:26:20;;;;;;;4.75;1.98;;;;;;;16.63;28.43;101337.97;10472713;28;20558;-81
2022/04/18 17:31:20;;;;;;;4.03;2.10;;;;;;;16.29;30.06;101336.06;10472811;28;20518;-78
2022/04/18 17:36:21;;;;;;;9.05;2.30;;;;;;;16.15;30.59;101338.25;10472822;28;20069;-80
2022/04/18 17:41:22;;;;;;;3.10;1.58;;;;;;;15.77;31.79;101335.19;10478080;28;20087;-79
2022/04/18 17:46:23;;;;;;;7.25;1.95;;;;;;;15.38;33.95;101341.81;10482590;28;20064;-78
2022/04/18 17:51:23;;;;;;;4.18;1.90;;;;;;;14.71;35.31;101342.84;10477648;28;20020;-82
2022/04/18 17:56:26;;;;;;;3.70;1.63;;;;;;;14.26;36.19;101354.25;10485167;28;20040;-82
2022/04/18 18:01:27;;;;;;;;;;;;;;;13.82;41.65;101348.91;10475259;28;20025;-82
2022/04/18 18:06:28;;;;;;;2.47;1.48;;;;;;;13.30;40.73;101346.72;10442578;28;19923;-81
2022/04/18 18:11:28;;;;;;;1.85;1.13;;;;;;;12.89;42.46;101354.53;10424296;28;20515;-81
2022/04/18 18:16:29;;;;;;;2.47;1.30;;;;;;;12.71;42.02;101354.59;10440277;28;20048;-84
2022/04/18 18:21:30;;;;;;;2.63;1.35;;;;;;;12.36;44.86;101355.53;10422794;28;20041;-82
2022/04/18 18:26:30;;;;;;;3.42;1.60;;;;;;;11.92;44.27;101361.25;10416823;28;20074;-81
2022/04/18 18:31:31;;;;;;;4.63;1.40;;;;;;;11.45;45.11;101358.03;10422012;28;20042;-78
2022/04/18 18:36:32;;;;;;;3.40;1.88;;;;;;;11.07;46.58;101357.78;10410697;28;20043;-79
2022/04/18 18:41:33;;;;;;;3.00;1.50;;;;;;;10.71;47.25;101355.91;10429155;28;20033;-78
2022/04/18 18:46:34;;;;;;;4.37;1.60;;;;;;;10.38;49.97;101363.63;10427021;28;20033;-78
2022/04/18 18:56:58;;;;;;;4.70;2.78;;;;;;;10.08;53.69;101375.84;10403962;28;20499;-78
2022/04/18 19:02:03;;;;;;;4.25;1.95;;;;;;;9.89;53.33;101366.94;10408369;28;21324;-80
2022/04/18 19:07:07;;;;;;;3.47;2.00;;;;;;;9.63;53.38;101382.00;10428524;28;20049;-80
2022/04/18 19:12:09;;;;;;;4.60;2.10;;;;;;;9.33;54.43;101389.78;10420013;28;20383;-80
2022/04/18 19:28:02;;;;;;;;;;;;;;;8.78;60.83;101389.88;10404248;28;20045;-80
2022/04/18 19:33:06;;;;;;;4.68;2.63;;;;;;;8.56;61.67;101380.69;10439733;28;20360;-80
2022/04/18 19:38:07;;;;;;;5.50;2.83;;;;;;;8.42;62.90;101381.47;10406521;28;20666;-81
2022/04/18 19:43:07;;;;;;;4.45;1.80;;;;;;;8.26;62.83;101389.97;10408352;28;20065;-80
2022/04/18 19:48:11;;;;;;;4.38;2.30;;;;;;;8.10;64.17;101388.97;10409005;28;20052;-80
2022/04/18 19:53:14;;;;;;;4.43;2.80;;;;;;;7.83;64.17;101385.47;10399922;28;20040;-80
2022/04/18 19:58:17;;;;;;;4.22;2.33;;;;;;;7.59;64.14;101383.00;10395427;28;20037;-80
2022/04/18 20:03:18;;;;;;;5.13;2.60;;;;;;;7.47;65.27;101378.75;10401435;28;20401;-80
2022/04/18 20:08:22;;;;;;;4.70;2.50;;;;;;;7.35;65.28;101388.34;10442871;28;20481;-81
2022/04/18 20:13:23;;;;;;;5.07;3.25;;;;;;;7.18;65.98;101371.53;10406900;28;20021;-81
2022/04/18 20:18:25;;;;;;;5.00;2.95;;;;;;;7.08;67.35;101375.19;10419178;28;20024;-81
2022/04/18 20:23:27;;;;;;;3.92;2.50;;;;;;;6.93;68.23;101366.31;10407032;28;20481;-81
2022/04/18 20:28:28;;;;;;;5.15;3.33;;;;;;;6.84;68.95;101380.50;10385188;28;20464;-81
2022/04/18 20:33:28;;;;;;;8.43;3.25;;;;;;;6.90;71.48;101367.00;10405878;28;20299;-81
2022/04/18 20:38:29;;;;;;;5.32;3.40;;;;;;;6.74;70.04;101373.72;10410245;28;20043;-81
2022/04/18 20:43:29;;;;;;;4.90;3.17;;;;;;;6.68;69.71;101375.88;10442546;28;20481;-81
2022/04/18 20:48:38;;;;;;;6.35;3.63;;;;;;;6.60;70.35;101377.94;10424003;28;20120;-81
2022/04/18 20:58:59;;;;;;;6.28;3.67;;;;;;;6.29;71.02;101374.81;10428220;28;20115;-81
2022/04/18 21:04:00;;;;;;;7.97;3.53;;;;;;;6.17;72.10;101378.31;10444137;28;20037;-80
2022/04/18 21:09:01;;;;;;;6.97;4.63;;;;;;;6.16;72.43;101373.00;10405108;28;21071;-81
2022/04/18 21:14:07;;;;;;;7.53;3.53;;;;;;;6.11;72.06;101371.78;10442360;28;20041;-81
2022/04/18 21:19:07;;;;;;;7.07;4.10;;;;;;;6.07;72.48;101373.22;10440180;28;20473;-81
2022/04/18 21:24:08;;;;;;;5.18;4.00;;;;;;;6.07;73.19;101375.81;10439441;28;20060;-81
2022/04/18 21:29:09;;;;;;;8.63;4.53;;;;;;;6.11;73.93;101370.06;10438550;28;20120;-81
2022/04/18 21:34:10;;;;;;;7.95;4.35;;;;;;;6.07;73.67;101374.94;10441973;28;20042;-81
2022/04/18 21:39:10;;;;;;;7.35;4.82;;;;;;;6.02;73.22;101375.50;10439804;28;20048;-81
2022/04/18 21:44:11;;;;;;;7.50;5.38;;;;;;;5.96;72.73;101372.41;10441596;28;20345;-81
2022/04/18 21:49:11;;;;;;;8.35;4.72;;;;;;;5.85;72.59;101378.50;10438035;28;20036;-81
2022/04/18 21:54:12;;;;;;;7.88;5.40;;;;;;;5.80;72.77;101378.13;10424112;28;20136;-81
2022/04/18 21:59:13;;;;;;;6.55;4.40;;;;;;;5.78;72.26;101371.91;10404216;28;20025;-81
2022/04/18 22:04:13;;;;;;;10.65;6.05;;;;;;;5.79;72.89;101370.25;10403460;28;20045;-81
2022/04/18 22:09:14;;;;;;;9.25;4.65;;;;;;;5.68;73.23;101370.34;10440629;28;20042;-81
2022/04/18 22:14:14;;;;;;;9.63;4.43;;;;;;;5.68;74.02;101366.81;10404881;28;20024;-81
2022/04/18 22:29:54;;;;;;;9.57;5.38;;;;;;;5.30;75.21;101355.34;10409544;28;20025;-81
2022/04/18 22:34:54;;;;;;;7.82;4.70;;;;;;;5.12;75.01;101352.22;10406149;28;20408;-81
2022/04/18 22:39:55;;;;;;;12.35;5.22;;;;;;;5.00;75.65;101341.81;10437892;28;20115;-81
2022/04/18 22:44:58;;;;;;;7.72;5.00;;;;;;;4.95;76.23;101349.22;10448127;28;20024;-81
2022/04/18 22:49:59;;;;;;;13.98;6.00;;;;;;;4.79;76.53;101346.22;10416287;28;20029;-81
2022/04/18 22:55:00;;;;;;;9.15;5.63;;;;;;;4.76;77.06;101340.78;10411546;28;20037;-81
2022/04/18 23:00:05;;;;;;;8.07;5.27;;;;;;;4.61;77.74;101333.59;10429047;28;20029;-81
2022/04/18 23:10:28;;;;;;;9.30;6.82;;;;;;;4.33;78.17;101335.69;10486388;28;20119;-81
2022/04/18 23:15:31;;;;;;;8.13;5.53;;;;;;;4.17;78.51;101337.06;10468480;28;20455;-81
2022/04/18 23:20:34;;;;;;;10.57;5.05;;;;;;;3.97;78.90;101330.22;10488024;28;20037;-81
2022/04/18 23:25:38;;;;;;;10.60;5.78;;;;;;;3.87;79.26;101336.38;10479402;28;20033;-81
2022/04/18 23:30:38;;;;;;;10.30;5.18;;;;;;;3.74;79.94;101323.19;10488302;28;20506;-81
2022/04/18 23:35:40;;;;;;;7.80;5.93;;;;;;;3.68;81.00;101323.56;10485248;28;20029;-81
2022/04/18 23:45:59;;;;;;;12.68;6.70;;;;;;;3.64;81.83;101313.72;10494869;28;20032;-79
2022/04/18 23:51:00;;;;;;;9.68;5.75;;;;;;;3.65;82.01;101318.13;10493166;28;21036;-79
2022/04/18 23:56:01;;;;;;;14.65;8.02;;;;;;;3.52;82.50;101301.59;10488196;28;20423;-80
